createdAt,value
2017-09-16T00:00:46.246Z,0
2017-09-16T00:01:46.260Z,0
2017-09-16T00:02:46.163Z,0
2017-09-16T00:03:46.153Z,0
2017-09-16T00:04:46.166Z,0
2017-09-16T00:05:46.210Z,0
2017-09-16T00:06:46.279Z,0
2017-09-16T00:07:46.188Z,0
2017-09-16T00:08:46.210Z,0
2017-09-16T00:09:46.221Z,0
2017-09-16T00:10:46.269Z,0
2017-09-16T00:11:46.225Z,0
2017-09-16T00:12:46.265Z,0
2017-09-16T00:13:46.218Z,0
2017-09-16T00:14:46.294Z,0
2017-09-16T00:15:46.288Z,0
2017-09-16T00:16:46.289Z,0
2017-09-16T00:17:46.229Z,0
2017-09-16T00:18:46.272Z,0
2017-09-16T00:19:46.227Z,0
2017-09-16T00:20:46.257Z,0
2017-09-16T00:21:46.202Z,0
2017-09-16T00:22:46.175Z,0
2017-09-16T00:23:46.169Z,0
2017-09-16T00:24:46.261Z,0
2017-09-16T00:25:46.237Z,0
2017-09-16T00:26:46.275Z,0
2017-09-16T00:27:46.242Z,0
2017-09-16T00:28:46.203Z,0
2017-09-16T00:29:46.221Z,0
2017-09-16T00:30:46.232Z,0
2017-09-16T00:31:46.243Z,0
2017-09-16T00:32:46.228Z,0
2017-09-16T00:33:46.239Z,0
2017-09-16T00:34:46.237Z,0
2017-09-16T00:35:46.262Z,0
2017-09-16T00:36:46.251Z,0
2017-09-16T00:37:46.237Z,0
2017-09-16T00:38:46.180Z,0
2017-09-16T00:39:46.273Z,0
2017-09-16T00:40:46.201Z,0
2017-09-16T00:41:46.206Z,0
2017-09-16T00:42:46.204Z,0
2017-09-16T00:43:46.258Z,0
2017-09-16T00:44:46.177Z,0
2017-09-16T00:45:46.180Z,0
2017-09-16T00:46:46.208Z,0
2017-09-16T00:47:46.177Z,0
2017-09-16T00:48:46.209Z,0
2017-09-16T00:49:46.215Z,0
2017-09-16T00:50:46.239Z,0
2017-09-16T00:51:46.184Z,0
2017-09-16T00:52:46.287Z,0
2017-09-16T00:53:46.239Z,0
2017-09-16T00:54:46.244Z,0
2017-09-16T00:55:46.254Z,0
2017-09-16T00:56:46.186Z,0
2017-09-16T00:57:46.189Z,0
2017-09-16T00:58:46.224Z,0
2017-09-16T00:59:46.257Z,0
2017-09-16T01:00:46.226Z,0
2017-09-16T01:01:46.192Z,0
2017-09-16T01:02:46.223Z,0
2017-09-16T01:03:46.289Z,0
2017-09-16T01:04:46.191Z,0
2017-09-16T01:05:46.244Z,0
2017-09-16T01:06:46.194Z,0
2017-09-16T01:07:46.288Z,0
2017-09-16T01:08:46.273Z,0
2017-09-16T01:09:46.250Z,0
2017-09-16T01:10:46.298Z,0
2017-09-16T01:11:46.302Z,0
2017-09-16T01:12:46.209Z,0
2017-09-16T01:13:46.330Z,0
2017-09-16T01:14:46.266Z,0
2017-09-16T01:15:46.261Z,0
2017-09-16T01:16:46.211Z,0
2017-09-16T01:17:46.307Z,0
2017-09-16T01:18:46.302Z,0
2017-09-16T01:19:46.306Z,0
2017-09-16T01:20:46.264Z,0
2017-09-16T01:21:46.263Z,0
2017-09-16T01:22:46.229Z,0
2017-09-16T01:23:46.226Z,0
2017-09-16T01:24:46.199Z,0
2017-09-16T01:25:46.262Z,0
2017-09-16T01:26:46.204Z,0
2017-09-16T01:27:46.230Z,0
2017-09-16T01:28:46.232Z,0
2017-09-16T01:29:46.232Z,0
2017-09-16T01:30:46.265Z,0
2017-09-16T01:31:46.346Z,0
2017-09-16T01:32:46.316Z,0
2017-09-16T01:33:46.229Z,0
2017-09-16T01:34:46.270Z,0
2017-09-16T01:35:46.315Z,0
2017-09-16T01:36:46.286Z,0
2017-09-16T01:37:46.334Z,0
2017-09-16T01:38:46.319Z,0
2017-09-16T01:39:46.217Z,0
2017-09-16T01:40:46.173Z,0
2017-09-16T01:41:46.201Z,0
2017-09-16T01:42:46.229Z,0
2017-09-16T01:43:46.216Z,0
2017-09-16T01:44:46.201Z,0
2017-09-16T01:45:46.161Z,0
2017-09-16T01:46:46.211Z,0
2017-09-16T01:47:46.160Z,0
2017-09-16T01:48:46.157Z,0
2017-09-16T01:49:46.265Z,0
2017-09-16T01:50:46.331Z,0
2017-09-16T01:51:46.282Z,0
2017-09-16T01:53:46.330Z,0
2017-09-16T01:54:46.331Z,0
2017-09-16T01:55:46.287Z,0
2017-09-16T01:56:46.285Z,0
2017-09-16T01:57:46.279Z,0
2017-09-16T01:58:46.287Z,0
2017-09-16T01:59:46.261Z,0
2017-09-16T02:00:46.248Z,0
2017-09-16T02:01:46.253Z,0
2017-09-16T02:02:46.284Z,0
2017-09-16T02:03:46.267Z,0
2017-09-16T02:04:46.343Z,0
2017-09-16T02:05:46.255Z,0
2017-09-16T02:06:46.282Z,0
2017-09-16T02:07:46.308Z,0
2017-09-16T02:08:46.255Z,0
2017-09-16T02:09:46.267Z,0
2017-09-16T02:10:46.333Z,0
2017-09-16T02:11:46.339Z,0
2017-09-16T02:12:46.337Z,0
2017-09-16T02:13:46.243Z,0
2017-09-16T02:14:46.293Z,0
2017-09-16T02:15:46.297Z,0
2017-09-16T02:16:46.294Z,0
2017-09-16T02:17:46.300Z,0
2017-09-16T02:18:46.301Z,0
2017-09-16T02:19:46.362Z,0
2017-09-16T02:20:46.300Z,0
2017-09-16T02:21:46.345Z,0
2017-09-16T02:22:46.346Z,0
2017-09-16T02:23:46.335Z,0
2017-09-16T02:24:46.299Z,0
2017-09-16T02:25:46.281Z,0
2017-09-16T02:26:46.348Z,0
2017-09-16T02:28:46.297Z,0
2017-09-16T02:29:46.353Z,0
2017-09-16T02:30:46.293Z,0
2017-09-16T02:31:46.269Z,0
2017-09-16T02:32:46.225Z,0
2017-09-16T02:33:46.307Z,0
2017-09-16T02:34:46.269Z,0
2017-09-16T02:35:46.252Z,0
2017-09-16T02:36:46.315Z,0
2017-09-16T02:37:46.248Z,0
2017-09-16T02:38:46.270Z,0
2017-09-16T02:39:46.278Z,0
2017-09-16T02:40:46.343Z,0
2017-09-16T02:41:46.277Z,0
2017-09-16T02:42:46.344Z,0
2017-09-16T02:43:46.286Z,0
2017-09-16T02:44:46.280Z,0
2017-09-16T02:45:46.344Z,0
2017-09-16T02:46:46.261Z,0
2017-09-16T02:47:46.329Z,0
2017-09-16T02:48:46.279Z,0
2017-09-16T02:49:46.263Z,0
2017-09-16T02:50:46.358Z,0
2017-09-16T02:51:46.255Z,0
2017-09-16T02:52:46.325Z,0
2017-09-16T02:53:46.353Z,0
2017-09-16T02:54:46.295Z,0
2017-09-16T02:55:46.269Z,0
2017-09-16T02:56:46.333Z,0
2017-09-16T02:57:46.332Z,0
2017-09-16T02:58:46.267Z,0
2017-09-16T02:59:46.363Z,0
2017-09-16T03:00:46.367Z,0
2017-09-16T03:01:46.287Z,0
2017-09-16T03:02:46.298Z,0
2017-09-16T03:03:46.316Z,0
2017-09-16T03:04:46.317Z,0
2017-09-16T03:05:46.337Z,0
2017-09-16T03:06:46.366Z,0
2017-09-16T03:07:46.369Z,0
2017-09-16T03:08:46.359Z,0
2017-09-16T03:09:46.359Z,0
2017-09-16T03:10:46.348Z,0
2017-09-16T03:11:46.331Z,0
2017-09-16T03:12:46.391Z,0
2017-09-16T03:13:46.378Z,0
2017-09-16T03:14:46.550Z,0
2017-09-16T03:15:46.330Z,0
2017-09-16T03:16:46.397Z,0
2017-09-16T03:17:46.333Z,0
2017-09-16T03:18:46.333Z,0
2017-09-16T03:19:46.380Z,0
2017-09-16T03:20:46.351Z,0
2017-09-16T03:21:46.351Z,0
2017-09-16T03:22:46.282Z,0
2017-09-16T03:23:46.349Z,0
2017-09-16T03:24:46.299Z,0
2017-09-16T03:25:46.272Z,0
2017-09-16T03:26:46.302Z,0
2017-09-16T03:27:46.286Z,0
2017-09-16T03:28:46.311Z,0
2017-09-16T03:29:46.288Z,0
2017-09-16T03:30:46.282Z,0
2017-09-16T03:31:46.350Z,0
2017-09-16T03:32:46.303Z,0
2017-09-16T03:33:46.396Z,0
2017-09-16T03:34:46.335Z,0
2017-09-16T03:35:46.316Z,0
2017-09-16T03:36:46.361Z,0
2017-09-16T03:37:46.392Z,0
2017-09-16T03:38:46.390Z,0
2017-09-16T03:39:46.310Z,0
2017-09-16T03:40:46.301Z,0
2017-09-16T03:41:46.378Z,0
2017-09-16T03:42:46.337Z,0
2017-09-16T03:43:46.284Z,0
2017-09-16T03:44:46.292Z,0
2017-09-16T03:45:46.367Z,0
2017-09-16T03:46:46.320Z,0
2017-09-16T03:47:46.296Z,0
2017-09-16T03:48:46.315Z,0
2017-09-16T03:49:46.381Z,0
2017-09-16T03:50:46.401Z,0
2017-09-16T03:52:46.420Z,0
2017-09-16T03:53:46.438Z,0
2017-09-16T03:54:46.392Z,0
2017-09-16T03:55:46.416Z,0
2017-09-16T03:56:46.354Z,0
2017-09-16T03:57:46.406Z,0
2017-09-16T03:58:46.360Z,0
2017-09-16T03:59:46.422Z,0
2017-09-16T04:00:46.239Z,0
2017-09-16T04:01:46.244Z,0
2017-09-16T04:02:46.315Z,0
2017-09-16T04:03:46.313Z,0
2017-09-16T04:04:46.302Z,0
2017-09-16T04:05:46.308Z,0
2017-09-16T04:06:46.292Z,0
2017-09-16T04:07:46.318Z,0
2017-09-16T04:08:46.291Z,0
2017-09-16T04:09:46.297Z,0
2017-09-16T04:10:46.353Z,0
2017-09-16T04:11:46.376Z,0
2017-09-16T04:13:46.359Z,0
2017-09-16T04:14:46.358Z,0
2017-09-16T04:15:46.402Z,0
2017-09-16T04:16:46.363Z,0
2017-09-16T04:17:46.415Z,0
2017-09-16T04:18:46.404Z,0
2017-09-16T04:19:46.430Z,0
2017-09-16T04:20:46.375Z,0
2017-09-16T04:21:46.433Z,0
2017-09-16T04:22:46.372Z,0
2017-09-16T04:23:46.320Z,0
2017-09-16T04:24:46.374Z,0
2017-09-16T04:25:46.422Z,0
2017-09-16T04:26:46.372Z,0
2017-09-16T04:27:46.428Z,0
2017-09-16T04:28:46.382Z,0
2017-09-16T04:29:46.377Z,0
2017-09-16T04:30:46.343Z,0
2017-09-16T04:31:46.336Z,0
2017-09-16T04:32:46.350Z,0
2017-09-16T04:33:46.301Z,0
2017-09-16T04:34:46.349Z,0
2017-09-16T04:35:46.328Z,0
2017-09-16T04:36:46.351Z,0
2017-09-16T04:37:46.373Z,0
2017-09-16T04:38:46.342Z,0
2017-09-16T04:39:46.375Z,0
2017-09-16T04:40:46.353Z,0
2017-09-16T04:41:46.398Z,0
2017-09-16T04:42:46.332Z,0
2017-09-16T04:43:46.321Z,0
2017-09-16T04:44:46.375Z,0
2017-09-16T04:45:46.453Z,0
2017-09-16T04:46:46.413Z,0
2017-09-16T04:47:46.429Z,0
2017-09-16T04:48:46.336Z,0
2017-09-16T04:49:46.360Z,0
2017-09-16T04:50:46.359Z,0
2017-09-16T04:51:46.355Z,0
2017-09-16T04:52:46.321Z,0
2017-09-16T04:53:46.353Z,0
2017-09-16T04:54:46.356Z,0
2017-09-16T04:55:46.388Z,0
2017-09-16T04:56:46.411Z,0
2017-09-16T04:57:46.357Z,0
2017-09-16T04:58:46.394Z,0
2017-09-16T04:59:46.362Z,0
2017-09-16T05:00:46.385Z,0
2017-09-16T05:01:46.433Z,0
2017-09-16T05:02:46.405Z,0
2017-09-16T05:03:46.444Z,0
2017-09-16T05:04:46.393Z,0
2017-09-16T05:05:46.429Z,0
2017-09-16T05:06:46.439Z,0
2017-09-16T05:07:46.343Z,0
2017-09-16T05:08:46.374Z,0
2017-09-16T05:09:46.391Z,0
2017-09-16T05:10:46.368Z,0
2017-09-16T05:11:46.363Z,0
2017-09-16T05:12:46.362Z,0
2017-09-16T05:13:46.366Z,0
2017-09-16T05:14:46.411Z,0
2017-09-16T05:15:46.349Z,0
2017-09-16T05:16:46.339Z,0
2017-09-16T05:17:46.373Z,0
2017-09-16T05:18:46.446Z,0
2017-09-16T05:19:46.339Z,0
2017-09-16T05:20:46.456Z,0
2017-09-16T05:21:46.451Z,0
2017-09-16T05:22:46.467Z,0
2017-09-16T05:23:46.409Z,0
2017-09-16T05:24:46.357Z,0
2017-09-16T05:25:46.412Z,0
2017-09-16T05:26:46.410Z,0
2017-09-16T05:27:46.363Z,0
2017-09-16T05:28:46.388Z,0
2017-09-16T05:29:46.420Z,0
2017-09-16T05:30:46.405Z,0
2017-09-16T05:31:46.376Z,0
2017-09-16T05:32:46.429Z,0
2017-09-16T05:33:46.428Z,0
2017-09-16T05:34:46.360Z,0
2017-09-16T05:35:46.428Z,0
2017-09-16T05:36:46.379Z,0
2017-09-16T05:37:46.413Z,0
2017-09-16T05:38:46.351Z,24
2017-09-16T05:39:46.382Z,14
2017-09-16T05:40:46.412Z,12
2017-09-16T05:41:46.354Z,13
2017-09-16T05:42:46.405Z,14
2017-09-16T05:43:46.387Z,17
2017-09-16T05:44:46.427Z,18
2017-09-16T05:45:46.410Z,16
2017-09-16T05:46:46.392Z,17
2017-09-16T05:47:46.456Z,17
2017-09-16T05:48:46.400Z,16
2017-09-16T05:49:46.413Z,18
2017-09-16T05:50:46.462Z,24
2017-09-16T05:51:46.359Z,28
2017-09-16T05:52:46.413Z,32
2017-09-16T05:53:46.428Z,26
2017-09-16T05:54:46.415Z,24
2017-09-16T05:55:46.458Z,23
2017-09-16T05:56:46.417Z,24
2017-09-16T05:57:46.415Z,25
2017-09-16T05:58:46.372Z,30
2017-09-16T05:59:46.419Z,33
2017-09-16T06:00:46.423Z,33
2017-09-16T06:01:46.393Z,34
2017-09-16T06:02:46.364Z,42
2017-09-16T06:03:46.362Z,40
2017-09-16T06:04:46.432Z,38
2017-09-16T06:05:46.452Z,45
2017-09-16T06:06:46.395Z,52
2017-09-16T06:07:46.393Z,49
2017-09-16T06:08:46.401Z,42
2017-09-16T06:09:46.399Z,37
2017-09-16T06:10:46.401Z,41
2017-09-16T06:11:46.463Z,47
2017-09-16T06:12:46.447Z,58
2017-09-16T06:13:46.476Z,60
2017-09-16T06:14:46.462Z,54
2017-09-16T06:15:46.476Z,49
2017-09-16T06:16:46.383Z,50
2017-09-16T06:17:46.468Z,65
2017-09-16T06:18:46.429Z,82
2017-09-16T06:19:46.399Z,96
2017-09-16T06:20:46.446Z,103
2017-09-16T06:21:46.409Z,99
2017-09-16T06:22:46.445Z,86
2017-09-16T06:23:46.480Z,90
2017-09-16T06:24:46.443Z,94
2017-09-16T06:25:46.489Z,94
2017-09-16T06:26:46.490Z,86
2017-09-16T06:27:46.516Z,74
2017-09-16T06:28:46.423Z,72
2017-09-16T06:29:46.486Z,72
2017-09-16T06:30:46.492Z,71
2017-09-16T06:31:46.496Z,71
2017-09-16T06:32:46.412Z,79
2017-09-16T06:33:46.507Z,85
2017-09-16T06:34:46.453Z,85
2017-09-16T06:35:46.410Z,85
2017-09-16T06:36:46.494Z,90
2017-09-16T06:37:46.457Z,76
2017-09-16T06:38:46.512Z,63
2017-09-16T06:39:46.501Z,66
2017-09-16T06:40:46.493Z,59
2017-09-16T06:41:46.544Z,75
2017-09-16T06:42:46.451Z,80
2017-09-16T06:43:46.450Z,86
2017-09-16T06:44:46.499Z,101
2017-09-16T06:45:46.448Z,103
2017-09-16T06:46:46.494Z,102
2017-09-16T06:47:46.458Z,108
2017-09-16T06:48:46.455Z,118
2017-09-16T06:49:46.420Z,124
2017-09-16T06:50:46.501Z,129
2017-09-16T06:51:46.460Z,130
2017-09-16T06:52:46.457Z,121
2017-09-16T06:53:46.505Z,124
2017-09-16T06:54:46.523Z,104
2017-09-16T06:55:46.505Z,97
2017-09-16T06:56:46.527Z,91
2017-09-16T06:57:46.528Z,103
2017-09-16T06:58:46.461Z,111
2017-09-16T06:59:46.466Z,117
2017-09-16T07:00:46.531Z,129
2017-09-16T07:01:46.465Z,135
2017-09-16T07:02:46.443Z,134
2017-09-16T07:03:46.442Z,118
2017-09-16T07:04:46.513Z,110
2017-09-16T07:05:46.467Z,122
2017-09-16T07:06:46.443Z,125
2017-09-16T07:07:46.466Z,122
2017-09-16T07:08:46.417Z,119
2017-09-16T07:09:46.417Z,126
2017-09-16T07:10:46.465Z,137
2017-09-16T07:11:46.516Z,133
2017-09-16T07:12:46.511Z,133
2017-09-16T07:13:46.517Z,133
2017-09-16T07:14:46.473Z,132
2017-09-16T07:15:46.519Z,132
2017-09-16T07:16:46.494Z,118
2017-09-16T07:17:46.475Z,111
2017-09-16T07:18:46.471Z,98
2017-09-16T07:19:46.425Z,94
2017-09-16T07:20:46.424Z,94
2017-09-16T07:21:46.443Z,96
2017-09-16T07:22:46.473Z,100
2017-09-16T07:23:46.475Z,96
2017-09-16T07:24:46.541Z,91
2017-09-16T07:25:46.427Z,95
2017-09-16T07:26:46.475Z,95
2017-09-16T07:27:46.444Z,101
2017-09-16T07:28:46.480Z,111
2017-09-16T07:29:46.474Z,112
2017-09-16T07:30:46.478Z,123
2017-09-16T07:31:46.449Z,127
2017-09-16T07:32:46.519Z,132
2017-09-16T07:33:46.473Z,148
2017-09-16T07:34:46.488Z,158
2017-09-16T07:35:46.523Z,160
2017-09-16T07:36:46.458Z,150
2017-09-16T07:37:46.487Z,148
2017-09-16T07:38:46.443Z,157
2017-09-16T07:39:46.520Z,170
2017-09-16T07:40:46.483Z,173
2017-09-16T07:41:46.526Z,189
2017-09-16T07:42:46.454Z,219
2017-09-16T07:43:46.480Z,213
2017-09-16T07:44:46.494Z,199
2017-09-16T07:45:46.487Z,181
2017-09-16T07:46:46.491Z,170
2017-09-16T07:47:46.446Z,163
2017-09-16T07:48:46.528Z,166
2017-09-16T07:49:46.483Z,176
2017-09-16T07:50:46.516Z,175
2017-09-16T07:51:46.491Z,164
2017-09-16T07:52:46.482Z,166
2017-09-16T07:53:46.424Z,172
2017-09-16T07:54:46.456Z,178
2017-09-16T07:55:46.487Z,179
2017-09-16T07:56:46.433Z,175
2017-09-16T07:57:46.514Z,169
2017-09-16T07:58:46.435Z,161
2017-09-16T07:59:46.495Z,155
2017-09-16T08:00:46.494Z,150
2017-09-16T08:01:46.459Z,145
2017-09-16T08:02:46.460Z,142
2017-09-16T08:03:46.549Z,140
2017-09-16T08:04:46.438Z,138
2017-09-16T08:05:46.463Z,137
2017-09-16T08:06:46.503Z,142
2017-09-16T08:07:46.440Z,150
2017-09-16T08:08:46.464Z,160
2017-09-16T08:09:46.434Z,172
2017-09-16T08:10:46.466Z,181
2017-09-16T08:11:46.496Z,185
2017-09-16T08:12:46.507Z,206
2017-09-16T08:13:46.474Z,230
2017-09-16T08:14:46.453Z,233
2017-09-16T08:15:46.500Z,207
2017-09-16T08:16:46.503Z,186
2017-09-16T08:17:46.448Z,186
2017-09-16T08:18:46.509Z,203
2017-09-16T08:19:46.504Z,222
2017-09-16T08:20:46.538Z,223
2017-09-16T08:21:46.551Z,246
2017-09-16T08:22:46.490Z,282
2017-09-16T08:23:46.515Z,277
2017-09-16T08:24:46.513Z,297
2017-09-16T08:25:46.511Z,296
2017-09-16T08:26:46.562Z,384
2017-09-16T08:27:46.490Z,276
2017-09-16T08:28:46.494Z,264
2017-09-16T08:29:46.495Z,292
2017-09-16T08:30:46.563Z,288
2017-09-16T08:31:46.449Z,367
2017-09-16T08:32:46.512Z,496
2017-09-16T08:33:46.454Z,275
2017-09-16T08:34:46.580Z,243
2017-09-16T08:35:46.482Z,212
2017-09-16T08:36:46.452Z,201
2017-09-16T08:37:46.454Z,205
2017-09-16T08:38:46.449Z,223
2017-09-16T08:39:46.517Z,241
2017-09-16T08:40:46.454Z,249
2017-09-16T08:41:46.558Z,257
2017-09-16T08:42:46.502Z,254
2017-09-16T08:43:46.543Z,275
2017-09-16T08:44:46.525Z,289
2017-09-16T08:45:46.535Z,294
2017-09-16T08:46:46.570Z,339
2017-09-16T08:47:46.562Z,688
2017-09-16T08:48:46.523Z,655
2017-09-16T08:49:46.504Z,387
2017-09-16T08:50:46.568Z,388
2017-09-16T08:51:46.493Z,357
2017-09-16T08:52:46.465Z,356
2017-09-16T08:53:46.489Z,375
2017-09-16T08:54:46.493Z,357
2017-09-16T08:55:46.493Z,294
2017-09-16T08:56:46.503Z,376
2017-09-16T08:57:46.497Z,375
2017-09-16T08:58:46.522Z,447
2017-09-16T08:59:46.473Z,584
2017-09-16T09:00:46.561Z,402
2017-09-16T09:01:46.546Z,400
2017-09-16T09:02:46.528Z,478
2017-09-16T09:03:46.513Z,416
2017-09-16T09:04:46.544Z,434
2017-09-16T09:05:46.567Z,456
2017-09-16T09:06:46.520Z,394
2017-09-16T09:07:46.566Z,484
2017-09-16T09:08:46.580Z,853
2017-09-16T09:09:46.481Z,469
2017-09-16T09:10:46.531Z,446
2017-09-16T09:11:46.551Z,433
2017-09-16T09:12:46.504Z,430
2017-09-16T09:13:46.553Z,389
2017-09-16T09:14:46.582Z,840
2017-09-16T09:15:46.508Z,893
2017-09-16T09:16:46.543Z,898
2017-09-16T09:17:46.594Z,897
2017-09-16T09:18:46.539Z,806
2017-09-16T09:19:46.519Z,543
2017-09-16T09:20:46.586Z,466
2017-09-16T09:21:46.524Z,718
2017-09-16T09:22:46.491Z,589
2017-09-16T09:23:46.547Z,929
2017-09-16T09:24:46.599Z,795
2017-09-16T09:25:46.591Z,996
2017-09-16T09:26:46.598Z,1025
2017-09-16T09:27:46.512Z,586
2017-09-16T09:28:46.509Z,763
2017-09-16T09:29:46.600Z,540
2017-09-16T09:30:46.560Z,921
2017-09-16T09:31:46.551Z,861
2017-09-16T09:32:46.553Z,867
2017-09-16T09:33:46.593Z,957
2017-09-16T09:34:46.556Z,445
2017-09-16T09:35:46.494Z,435
2017-09-16T09:36:46.526Z,425
2017-09-16T09:37:46.688Z,433
2017-09-16T09:38:46.566Z,742
2017-09-16T09:39:46.536Z,928
2017-09-16T09:40:46.604Z,590
2017-09-16T09:41:46.605Z,979
2017-09-16T09:42:46.584Z,466
2017-09-16T09:43:46.560Z,911
2017-09-16T09:44:46.557Z,1060
2017-09-16T09:45:46.538Z,801
2017-09-16T09:46:46.519Z,1065
2017-09-16T09:47:46.603Z,1000
2017-09-16T09:48:46.504Z,984
2017-09-16T09:49:46.537Z,379
2017-09-16T09:50:46.604Z,409
2017-09-16T09:51:46.604Z,759
2017-09-16T09:52:46.609Z,985
2017-09-16T09:53:46.538Z,370
2017-09-16T09:54:46.546Z,389
2017-09-16T09:55:46.545Z,388
2017-09-16T09:56:46.572Z,403
2017-09-16T09:57:46.564Z,1007
2017-09-16T09:58:46.614Z,356
2017-09-16T09:59:46.547Z,376
2017-09-16T10:00:46.546Z,429
2017-09-16T10:01:46.611Z,391
2017-09-16T10:02:46.584Z,402
2017-09-16T10:03:46.597Z,365
2017-09-16T10:04:46.609Z,338
2017-09-16T10:05:46.571Z,346
2017-09-16T10:06:46.622Z,377
2017-09-16T10:07:46.643Z,423
2017-09-16T10:08:46.553Z,488
2017-09-16T10:09:46.572Z,562
2017-09-16T10:10:46.577Z,1127
2017-09-16T10:11:46.515Z,662
2017-09-16T10:12:46.579Z,981
2017-09-16T10:13:46.548Z,948
2017-09-16T10:14:46.574Z,1006
2017-09-16T10:15:46.543Z,1047
2017-09-16T10:16:46.582Z,698
2017-09-16T10:17:46.552Z,369
2017-09-16T10:18:46.521Z,346
2017-09-16T10:19:46.519Z,339
2017-09-16T10:20:46.616Z,315
2017-09-16T10:21:46.517Z,310
2017-09-16T10:22:46.573Z,330
2017-09-16T10:23:46.514Z,338
2017-09-16T10:24:46.577Z,367
2017-09-16T10:25:46.543Z,417
2017-09-16T10:26:46.520Z,1038
2017-09-16T10:27:46.515Z,578
2017-09-16T10:28:46.576Z,403
2017-09-16T10:29:46.581Z,980
2017-09-16T10:30:46.581Z,1092
2017-09-16T10:31:46.526Z,955
2017-09-16T10:32:46.590Z,829
2017-09-16T10:33:46.619Z,1039
2017-09-16T10:34:46.564Z,545
2017-09-16T10:35:46.529Z,306
2017-09-16T10:36:46.533Z,255
2017-09-16T10:37:46.591Z,264
2017-09-16T10:38:46.597Z,333
2017-09-16T10:39:46.530Z,408
2017-09-16T10:40:46.584Z,484
2017-09-16T10:41:46.549Z,997
2017-09-16T10:42:46.615Z,522
2017-09-16T10:43:46.597Z,1022
2017-09-16T10:44:46.590Z,1044
2017-09-16T10:45:46.595Z,865
2017-09-16T10:46:46.606Z,349
2017-09-16T10:47:46.636Z,382
2017-09-16T10:48:46.599Z,399
2017-09-16T10:49:46.562Z,442
2017-09-16T10:50:46.636Z,362
2017-09-16T10:51:46.634Z,1020
2017-09-16T10:52:46.625Z,1029
2017-09-16T10:53:46.607Z,771
2017-09-16T10:54:46.633Z,271
2017-09-16T10:55:46.613Z,644
2017-09-16T10:56:46.540Z,974
2017-09-16T10:57:46.629Z,980
2017-09-16T10:58:46.640Z,954
2017-09-16T10:59:46.577Z,386
2017-09-16T11:00:46.576Z,248
2017-09-16T11:01:46.599Z,268
2017-09-16T11:02:46.632Z,373
2017-09-16T11:03:46.648Z,549
2017-09-16T11:04:46.609Z,770
2017-09-16T11:05:46.647Z,414
2017-09-16T11:06:46.606Z,358
2017-09-16T11:07:46.657Z,653
2017-09-16T11:08:46.552Z,781
2017-09-16T11:09:46.588Z,504
2017-09-16T11:10:46.589Z,1055
2017-09-16T11:11:46.649Z,376
2017-09-16T11:12:46.617Z,367
2017-09-16T11:13:46.610Z,943
2017-09-16T11:14:46.595Z,899
2017-09-16T11:15:46.593Z,894
2017-09-16T11:16:46.562Z,350
2017-09-16T11:17:46.659Z,891
2017-09-16T11:18:46.637Z,972
2017-09-16T11:19:46.614Z,805
2017-09-16T11:20:46.613Z,907
2017-09-16T11:21:46.559Z,742
2017-09-16T11:22:46.576Z,990
2017-09-16T11:23:46.581Z,987
2017-09-16T11:24:46.548Z,995
2017-09-16T11:25:46.548Z,1019
2017-09-16T11:26:46.583Z,1026
2017-09-16T11:27:46.584Z,1045
2017-09-16T11:28:46.610Z,955
2017-09-16T11:29:46.579Z,1039
2017-09-16T11:30:46.582Z,900
2017-09-16T11:31:46.581Z,1067
2017-09-16T11:32:46.563Z,1071
2017-09-16T11:33:46.582Z,1066
2017-09-16T11:34:46.581Z,1046
2017-09-16T11:35:46.594Z,292
2017-09-16T11:36:46.536Z,848
2017-09-16T11:37:46.582Z,1001
2017-09-16T11:38:46.566Z,987
2017-09-16T11:39:46.590Z,958
2017-09-16T11:40:46.568Z,982
2017-09-16T11:41:46.547Z,998
2017-09-16T11:42:46.672Z,973
2017-09-16T11:43:46.676Z,668
2017-09-16T11:44:46.641Z,984
2017-09-16T11:45:46.607Z,1001
2017-09-16T11:46:46.661Z,1002
2017-09-16T11:47:46.673Z,984
2017-09-16T11:48:46.630Z,964
2017-09-16T11:49:46.681Z,944
2017-09-16T11:50:46.576Z,937
2017-09-16T11:51:46.581Z,941
2017-09-16T11:52:46.680Z,936
2017-09-16T11:53:46.593Z,933
2017-09-16T11:54:46.579Z,926
2017-09-16T11:55:46.614Z,922
2017-09-16T11:56:46.676Z,911
2017-09-16T11:57:46.582Z,927
2017-09-16T11:58:46.645Z,916
2017-09-16T11:59:46.621Z,909
2017-09-16T12:00:46.685Z,919
2017-09-16T12:01:46.618Z,910
2017-09-16T12:02:46.641Z,918
2017-09-16T12:03:46.664Z,923
2017-09-16T12:04:46.681Z,921
2017-09-16T12:05:46.648Z,886
2017-09-16T12:06:46.646Z,467
2017-09-16T12:07:46.687Z,253
2017-09-16T12:08:46.608Z,224
2017-09-16T12:09:46.664Z,216
2017-09-16T12:10:46.671Z,215
2017-09-16T12:11:46.631Z,218
2017-09-16T12:12:46.586Z,229
2017-09-16T12:13:46.658Z,237
2017-09-16T12:14:46.694Z,251
2017-09-16T12:15:46.593Z,271
2017-09-16T12:16:46.712Z,280
2017-09-16T12:17:46.631Z,273
2017-09-16T12:18:46.601Z,269
2017-09-16T12:19:46.645Z,261
2017-09-16T12:20:46.651Z,250
2017-09-16T12:21:46.653Z,253
2017-09-16T12:22:46.593Z,255
2017-09-16T12:23:46.651Z,271
2017-09-16T12:24:46.611Z,289
2017-09-16T12:25:46.726Z,307
2017-09-16T12:26:46.653Z,324
2017-09-16T12:27:46.632Z,354
2017-09-16T12:28:46.657Z,519
2017-09-16T12:29:46.632Z,671
2017-09-16T12:30:46.699Z,799
2017-09-16T12:31:46.632Z,1130
2017-09-16T12:32:46.655Z,1098
2017-09-16T12:33:46.702Z,1071
2017-09-16T12:34:46.619Z,1027
2017-09-16T12:35:46.701Z,666
2017-09-16T12:36:46.661Z,403
2017-09-16T12:37:46.727Z,332
2017-09-16T12:38:46.665Z,305
2017-09-16T12:39:46.662Z,898
2017-09-16T12:40:46.659Z,242
2017-09-16T12:41:46.641Z,206
2017-09-16T12:42:46.687Z,181
2017-09-16T12:43:46.709Z,161
2017-09-16T12:44:46.663Z,148
2017-09-16T12:45:46.675Z,145
2017-09-16T12:46:46.662Z,141
2017-09-16T12:47:46.661Z,137
2017-09-16T12:48:46.677Z,139
2017-09-16T12:49:46.646Z,143
2017-09-16T12:50:46.691Z,143
2017-09-16T12:51:46.667Z,143
2017-09-16T12:52:46.593Z,139
2017-09-16T12:53:46.596Z,132
2017-09-16T12:54:46.594Z,130
2017-09-16T12:55:46.606Z,131
2017-09-16T12:56:46.595Z,132
2017-09-16T12:57:46.544Z,130
2017-09-16T12:58:46.547Z,130
2017-09-16T12:59:46.667Z,128
2017-09-16T13:00:46.595Z,127
2017-09-16T13:01:46.631Z,126
2017-09-16T13:02:46.661Z,124
2017-09-16T13:03:46.660Z,124
2017-09-16T13:04:46.682Z,123
2017-09-16T13:05:46.621Z,112
2017-09-16T13:06:46.801Z,109
2017-09-16T13:07:46.718Z,103
2017-09-16T13:08:46.642Z,93
2017-09-16T13:09:46.677Z,92
2017-09-16T13:10:46.686Z,92
2017-09-16T13:11:46.644Z,95
2017-09-16T13:12:46.627Z,98
2017-09-16T13:13:46.681Z,103
2017-09-16T13:14:46.733Z,104
2017-09-16T13:15:46.666Z,112
2017-09-16T13:16:46.631Z,117
2017-09-16T13:17:46.630Z,117
2017-09-16T13:18:46.688Z,119
2017-09-16T13:19:46.774Z,122
2017-09-16T13:20:46.731Z,128
2017-09-16T13:21:46.685Z,134
2017-09-16T13:22:46.709Z,138
2017-09-16T13:23:46.734Z,143
2017-09-16T13:24:46.689Z,147
2017-09-16T13:25:46.734Z,151
2017-09-16T13:26:46.741Z,151
2017-09-16T13:27:46.688Z,152
2017-09-16T13:28:46.825Z,153
2017-09-16T13:29:46.638Z,155
2017-09-16T13:30:46.699Z,150
2017-09-16T13:31:46.733Z,140
2017-09-16T13:32:46.632Z,129
2017-09-16T13:33:46.685Z,122
2017-09-16T13:34:46.663Z,111
2017-09-16T13:35:46.726Z,107
2017-09-16T13:36:46.735Z,101
2017-09-16T13:37:46.701Z,94
2017-09-16T13:38:46.703Z,87
2017-09-16T13:39:46.700Z,84
2017-09-16T13:40:46.670Z,84
2017-09-16T13:41:46.639Z,87
2017-09-16T13:42:46.647Z,92
2017-09-16T13:43:46.680Z,97
2017-09-16T13:44:46.749Z,108
2017-09-16T13:45:46.701Z,126
2017-09-16T13:46:46.681Z,151
2017-09-16T13:47:46.748Z,237
2017-09-16T13:48:46.649Z,495
2017-09-16T13:49:46.658Z,791
2017-09-16T13:50:46.674Z,826
2017-09-16T13:51:46.711Z,873
2017-09-16T13:52:46.715Z,888
2017-09-16T13:53:46.655Z,889
2017-09-16T13:54:46.716Z,889
2017-09-16T13:55:46.755Z,894
2017-09-16T13:56:46.739Z,887
2017-09-16T13:57:46.673Z,882
2017-09-16T13:58:46.758Z,878
2017-09-16T13:59:46.759Z,869
2017-09-16T14:00:46.734Z,839
2017-09-16T14:01:46.752Z,822
2017-09-16T14:02:46.724Z,823
2017-09-16T14:03:46.690Z,804
2017-09-16T14:04:46.691Z,783
2017-09-16T14:05:46.678Z,754
2017-09-16T14:06:46.749Z,741
2017-09-16T14:07:46.742Z,716
2017-09-16T14:08:46.760Z,701
2017-09-16T14:09:46.683Z,707
2017-09-16T14:10:46.708Z,426
2017-09-16T14:11:46.668Z,465
2017-09-16T14:12:46.689Z,325
2017-09-16T14:13:46.713Z,424
2017-09-16T14:14:46.668Z,351
2017-09-16T14:15:46.724Z,182